Strona główna
METAR-TAF:

METAR-TAF

Lotnisko :

Emmen, Szwajcaria

Szerokość geograficzna: 47-05-32N, Długość geograficzna: 8-18-16E, wysokość: 426 m

Aktualna obserwacja pogody

Raport powstał 36 minut temu, godzina 00:50 UTC
Cisza
Temperatura 1°C
Wilgotność 86%
Ciśnienie 1022 hPa
Widzialność 10 km lub więcej

METAR: LSME 050050Z AUTO 00000KT 9999NDV NCD 01/M01 Q1022 RMK

czas: 03:26 (01:26 UTC)


TAF: brakujący

Obserwacja i prognoza pogody dla ponad 4000 lotnisk (raport METAR i TAF).

Dostępne stacje oznaczono żółtymi i czerwonymi punktami na mapie.

Najedź kursorem aby zobaczyć nazwę stacji.

Kliknij aby zobaczyć obserwacje i prognozy pogody.

Aby zmienić mapę: kliknij na zielony przycisk z czarnym krzyżykiem, aby powiększyć; na zielony przycisk z myślnikiem, aby pomniejszyć; na zielone strzałki, aby przejść do map sąsiednich.


METAR-TAF: